sensor_id;sensor_type;location;lat;lon;timestamp;P1;durP1;ratioP1;P2;durP2;ratioP2
18748;SDS011;9503;53.560;10.246;2022-08-19T00:01:16;29.88;;;18.80;;
18748;SDS011;9503;53.560;10.246;2022-08-19T00:03:43;31.15;;;18.13;;
18748;SDS011;9503;53.560;10.246;2022-08-19T00:06:10;33.40;;;20.30;;
18748;SDS011;9503;53.560;10.246;2022-08-19T00:08:38;28.65;;;19.05;;
18748;SDS011;9503;53.560;10.246;2022-08-19T00:11:05;32.60;;;18.63;;
18748;SDS011;9503;53.560;10.246;2022-08-19T00:13:32;30.83;;;19.20;;
18748;SDS011;9503;53.560;10.246;2022-08-19T00:16:00;30.67;;;20.13;;
18748;SDS011;9503;53.560;10.246;2022-08-19T00:18:27;36.08;;;21.75;;
18748;SDS011;9503;53.560;10.246;2022-08-19T00:20:54;30.67;;;20.08;;
18748;SDS011;9503;53.560;10.246;2022-08-19T00:23:20;30.70;;;20.65;;
18748;SDS011;9503;53.560;10.246;2022-08-19T00:25:49;27.90;;;18.60;;
18748;SDS011;9503;53.560;10.246;2022-08-19T00:28:15;28.63;;;19.17;;
18748;SDS011;9503;53.560;10.246;2022-08-19T00:30:42;30.73;;;20.77;;
18748;SDS011;9503;53.560;10.246;2022-08-19T00:33:09;34.22;;;20.83;;
18748;SDS011;9503;53.560;10.246;2022-08-19T00:35:36;30.77;;;19.45;;
18748;SDS011;9503;53.560;10.246;2022-08-19T00:38:03;36.55;;;22.38;;
18748;SDS011;9503;53.560;10.246;2022-08-19T00:40:31;40.95;;;21.83;;
18748;SDS011;9503;53.560;10.246;2022-08-19T00:42:59;37.65;;;21.92;;
18748;SDS011;9503;53.560;10.246;2022-08-19T00:45:28;34.47;;;21.40;;
18748;SDS011;9503;53.560;10.246;2022-08-19T00:47:57;45.20;;;26.50;;
18748;SDS011;9503;53.560;10.246;2022-08-19T00:50:29;38.47;;;23.45;;
18748;SDS011;9503;53.560;10.246;2022-08-19T00:52:56;39.28;;;24.05;;
18748;SDS011;9503;53.560;10.246;2022-08-19T00:55:26;42.15;;;25.52;;
18748;SDS011;9503;53.560;10.246;2022-08-19T00:57:55;43.33;;;24.23;;
18748;SDS011;9503;53.560;10.246;2022-08-19T01:00:28;44.38;;;26.63;;
18748;SDS011;9503;53.560;10.246;2022-08-19T01:02:56;47.33;;;26.88;;
18748;SDS011;9503;53.560;10.246;2022-08-19T01:05:24;44.28;;;25.88;;
18748;SDS011;9503;53.560;10.246;2022-08-19T01:07:54;43.35;;;25.77;;
18748;SDS011;9503;53.560;10.246;2022-08-19T01:10:23;46.85;;;27.30;;
18748;SDS011;9503;53.560;10.246;2022-08-19T01:12:52;48.58;;;26.70;;
18748;SDS011;9503;53.560;10.246;2022-08-19T01:15:23;45.60;;;27.23;;
18748;SDS011;9503;53.560;10.246;2022-08-19T01:17:55;53.85;;;27.67;;
18748;SDS011;9503;53.560;10.246;2022-08-19T01:20:23;48.17;;;27.25;;
18748;SDS011;9503;53.560;10.246;2022-08-19T01:22:52;50.05;;;26.80;;
18748;SDS011;9503;53.560;10.246;2022-08-19T01:25:21;42.15;;;24.58;;
18748;SDS011;9503;53.560;10.246;2022-08-19T01:27:51;48.53;;;26.27;;
18748;SDS011;9503;53.560;10.246;2022-08-19T01:30:20;48.50;;;25.98;;
18748;SDS011;9503;53.560;10.246;2022-08-19T01:32:48;46.85;;;26.92;;
18748;SDS011;9503;53.560;10.246;2022-08-19T01:35:15;53.55;;;28.92;;
18748;SDS011;9503;53.560;10.246;2022-08-19T01:37:44;50.63;;;27.38;;
18748;SDS011;9503;53.560;10.246;2022-08-19T01:40:13;48.17;;;27.08;;
18748;SDS011;9503;53.560;10.246;2022-08-19T01:42:40;48.65;;;26.95;;
18748;SDS011;9503;53.560;10.246;2022-08-19T01:45:07;43.63;;;25.83;;
18748;SDS011;9503;53.560;10.246;2022-08-19T01:47:35;50.72;;;28.13;;
18748;SDS011;9503;53.560;10.246;2022-08-19T01:50:03;44.20;;;26.50;;
18748;SDS011;9503;53.560;10.246;2022-08-19T01:52:31;48.90;;;26.48;;
18748;SDS011;9503;53.560;10.246;2022-08-19T01:54:58;42.45;;;23.90;;
18748;SDS011;9503;53.560;10.246;2022-08-19T01:57:26;47.95;;;27.10;;
18748;SDS011;9503;53.560;10.246;2022-08-19T01:59:53;43.92;;;25.83;;
18748;SDS011;9503;53.560;10.246;2022-08-19T02:02:21;52.13;;;27.15;;
18748;SDS011;9503;53.560;10.246;2022-08-19T02:04:48;46.30;;;26.08;;
18748;SDS011;9503;53.560;10.246;2022-08-19T02:07:15;44.70;;;25.48;;
18748;SDS011;9503;53.560;10.246;2022-08-19T02:09:44;41.35;;;26.02;;
18748;SDS011;9503;53.560;10.246;2022-08-19T02:12:13;46.50;;;26.17;;
18748;SDS011;9503;53.560;10.246;2022-08-19T02:14:42;39.92;;;24.77;;
18748;SDS011;9503;53.560;10.246;2022-08-19T02:17:09;45.88;;;25.48;;
18748;SDS011;9503;53.560;10.246;2022-08-19T02:19:36;42.17;;;25.10;;
18748;SDS011;9503;53.560;10.246;2022-08-19T02:22:02;42.75;;;25.13;;
18748;SDS011;9503;53.560;10.246;2022-08-19T02:24:32;44.35;;;24.52;;
18748;SDS011;9503;53.560;10.246;2022-08-19T02:26:59;42.85;;;24.63;;
18748;SDS011;9503;53.560;10.246;2022-08-19T02:29:26;42.45;;;25.25;;
18748;SDS011;9503;53.560;10.246;2022-08-19T02:31:54;47.90;;;25.35;;
18748;SDS011;9503;53.560;10.246;2022-08-19T02:34:21;40.03;;;25.38;;
18748;SDS011;9503;53.560;10.246;2022-08-19T02:36:47;44.35;;;25.75;;
18748;SDS011;9503;53.560;10.246;2022-08-19T02:39:14;45.65;;;27.05;;
18748;SDS011;9503;53.560;10.246;2022-08-19T02:41:40;43.45;;;26.13;;
18748;SDS011;9503;53.560;10.246;2022-08-19T02:44:07;44.35;;;25.85;;
18748;SDS011;9503;53.560;10.246;2022-08-19T02:46:34;40.08;;;24.85;;
18748;SDS011;9503;53.560;10.246;2022-08-19T02:49:06;44.03;;;25.45;;
18748;SDS011;9503;53.560;10.246;2022-08-19T02:51:35;42.42;;;24.95;;
18748;SDS011;9503;53.560;10.246;2022-08-19T02:54:03;39.80;;;23.48;;
18748;SDS011;9503;53.560;10.246;2022-08-19T02:56:31;46.20;;;24.30;;
18748;SDS011;9503;53.560;10.246;2022-08-19T02:59:00;49.03;;;27.00;;
18748;SDS011;9503;53.560;10.246;2022-08-19T03:01:27;45.83;;;26.65;;
18748;SDS011;9503;53.560;10.246;2022-08-19T03:03:59;47.53;;;25.10;;
18748;SDS011;9503;53.560;10.246;2022-08-19T03:06:30;50.13;;;25.92;;
18748;SDS011;9503;53.560;10.246;2022-08-19T03:08:57;49.42;;;25.25;;
18748;SDS011;9503;53.560;10.246;2022-08-19T03:11:25;53.85;;;27.48;;
18748;SDS011;9503;53.560;10.246;2022-08-19T03:13:55;49.78;;;27.25;;
18748;SDS011;9503;53.560;10.246;2022-08-19T03:16:23;51.95;;;25.88;;
18748;SDS011;9503;53.560;10.246;2022-08-19T03:18:52;49.60;;;26.60;;
18748;SDS011;9503;53.560;10.246;2022-08-19T03:21:21;51.83;;;26.27;;
18748;SDS011;9503;53.560;10.246;2022-08-19T03:23:53;49.85;;;26.38;;
18748;SDS011;9503;53.560;10.246;2022-08-19T03:26:20;49.38;;;25.27;;
18748;SDS011;9503;53.560;10.246;2022-08-19T03:28:47;47.25;;;23.55;;
18748;SDS011;9503;53.560;10.246;2022-08-19T03:31:15;52.53;;;25.90;;
18748;SDS011;9503;53.560;10.246;2022-08-19T03:33:43;43.22;;;25.60;;
18748;SDS011;9503;53.560;10.246;2022-08-19T03:36:12;56.95;;;26.20;;
18748;SDS011;9503;53.560;10.246;2022-08-19T03:38:42;54.80;;;26.85;;
18748;SDS011;9503;53.560;10.246;2022-08-19T03:41:12;50.30;;;26.83;;
18748;SDS011;9503;53.560;10.246;2022-08-19T03:43:40;52.40;;;26.70;;
18748;SDS011;9503;53.560;10.246;2022-08-19T03:46:09;52.85;;;27.25;;
18748;SDS011;9503;53.560;10.246;2022-08-19T03:48:37;53.70;;;28.80;;
18748;SDS011;9503;53.560;10.246;2022-08-19T03:51:06;55.90;;;27.55;;
18748;SDS011;9503;53.560;10.246;2022-08-19T03:53:34;58.03;;;28.27;;
18748;SDS011;9503;53.560;10.246;2022-08-19T03:56:02;50.53;;;27.70;;
18748;SDS011;9503;53.560;10.246;2022-08-19T03:58:30;54.33;;;26.42;;
18748;SDS011;9503;53.560;10.246;2022-08-19T04:00:57;51.65;;;27.25;;
18748;SDS011;9503;53.560;10.246;2022-08-19T04:03:24;49.35;;;26.73;;
18748;SDS011;9503;53.560;10.246;2022-08-19T04:05:52;50.67;;;25.58;;
18748;SDS011;9503;53.560;10.246;2022-08-19T04:08:20;55.92;;;27.65;;
18748;SDS011;9503;53.560;10.246;2022-08-19T04:10:47;58.05;;;27.13;;
18748;SDS011;9503;53.560;10.246;2022-08-19T04:13:15;49.55;;;25.60;;
18748;SDS011;9503;53.560;10.246;2022-08-19T04:15:44;50.72;;;26.90;;
18748;SDS011;9503;53.560;10.246;2022-08-19T04:18:12;53.10;;;25.13;;
18748;SDS011;9503;53.560;10.246;2022-08-19T04:20:40;52.92;;;26.42;;
18748;SDS011;9503;53.560;10.246;2022-08-19T04:23:08;46.90;;;25.48;;
18748;SDS011;9503;53.560;10.246;2022-08-19T04:25:38;48.47;;;25.00;;
18748;SDS011;9503;53.560;10.246;2022-08-19T04:28:06;47.47;;;25.73;;
18748;SDS011;9503;53.560;10.246;2022-08-19T04:30:38;43.38;;;22.33;;
18748;SDS011;9503;53.560;10.246;2022-08-19T04:33:07;40.78;;;23.20;;
18748;SDS011;9503;53.560;10.246;2022-08-19T04:35:35;40.42;;;22.60;;
18748;SDS011;9503;53.560;10.246;2022-08-19T04:38:03;44.10;;;23.63;;
18748;SDS011;9503;53.560;10.246;2022-08-19T04:40:31;37.90;;;22.60;;
18748;SDS011;9503;53.560;10.246;2022-08-19T04:43:15;42.47;;;22.45;;
18748;SDS011;9503;53.560;10.246;2022-08-19T04:45:42;42.40;;;23.35;;
18748;SDS011;9503;53.560;10.246;2022-08-19T04:48:11;50.40;;;24.38;;
18748;SDS011;9503;53.560;10.246;2022-08-19T04:50:39;45.33;;;23.45;;
18748;SDS011;9503;53.560;10.246;2022-08-19T04:53:10;38.75;;;22.95;;
18748;SDS011;9503;53.560;10.246;2022-08-19T04:55:40;37.90;;;20.92;;
18748;SDS011;9503;53.560;10.246;2022-08-19T04:58:08;37.83;;;21.00;;
18748;SDS011;9503;53.560;10.246;2022-08-19T05:00:37;35.13;;;21.88;;
18748;SDS011;9503;53.560;10.246;2022-08-19T05:03:04;37.90;;;22.52;;
18748;SDS011;9503;53.560;10.246;2022-08-19T05:05:32;35.85;;;20.58;;
18748;SDS011;9503;53.560;10.246;2022-08-19T05:07:59;37.60;;;22.98;;
18748;SDS011;9503;53.560;10.246;2022-08-19T05:10:25;33.97;;;20.75;;
18748;SDS011;9503;53.560;10.246;2022-08-19T05:12:52;42.22;;;23.85;;
18748;SDS011;9503;53.560;10.246;2022-08-19T05:15:19;39.60;;;22.35;;
18748;SDS011;9503;53.560;10.246;2022-08-19T05:17:46;43.40;;;21.38;;
18748;SDS011;9503;53.560;10.246;2022-08-19T05:20:26;36.03;;;20.73;;
18748;SDS011;9503;53.560;10.246;2022-08-19T05:23:12;43.17;;;23.55;;
18748;SDS011;9503;53.560;10.246;2022-08-19T05:25:40;42.00;;;23.15;;
18748;SDS011;9503;53.560;10.246;2022-08-19T05:28:07;37.85;;;21.52;;
18748;SDS011;9503;53.560;10.246;2022-08-19T05:30:34;44.20;;;24.13;;
18748;SDS011;9503;53.560;10.246;2022-08-19T05:33:01;40.53;;;22.48;;
18748;SDS011;9503;53.560;10.246;2022-08-19T05:35:27;42.13;;;23.73;;
18748;SDS011;9503;53.560;10.246;2022-08-19T05:37:54;43.63;;;22.58;;
18748;SDS011;9503;53.560;10.246;2022-08-19T05:40:22;47.25;;;24.65;;
18748;SDS011;9503;53.560;10.246;2022-08-19T05:42:49;43.08;;;24.08;;
18748;SDS011;9503;53.560;10.246;2022-08-19T05:45:16;49.00;;;24.52;;
18748;SDS011;9503;53.560;10.246;2022-08-19T05:47:42;44.67;;;22.88;;
18748;SDS011;9503;53.560;10.246;2022-08-19T05:50:10;50.33;;;24.90;;
18748;SDS011;9503;53.560;10.246;2022-08-19T05:52:37;47.50;;;23.52;;
18748;SDS011;9503;53.560;10.246;2022-08-19T05:55:04;47.53;;;24.55;;
18748;SDS011;9503;53.560;10.246;2022-08-19T05:57:33;45.40;;;23.88;;
18748;SDS011;9503;53.560;10.246;2022-08-19T06:00:00;47.40;;;23.88;;
18748;SDS011;9503;53.560;10.246;2022-08-19T06:02:28;42.33;;;23.55;;
18748;SDS011;9503;53.560;10.246;2022-08-19T06:04:56;43.95;;;24.35;;
18748;SDS011;9503;53.560;10.246;2022-08-19T06:07:23;42.28;;;22.27;;
18748;SDS011;9503;53.560;10.246;2022-08-19T06:09:49;39.70;;;21.88;;
18748;SDS011;9503;53.560;10.246;2022-08-19T06:12:16;38.70;;;22.48;;
18748;SDS011;9503;53.560;10.246;2022-08-19T06:14:44;35.58;;;20.25;;
18748;SDS011;9503;53.560;10.246;2022-08-19T06:17:11;44.00;;;22.10;;
18748;SDS011;9503;53.560;10.246;2022-08-19T06:19:38;42.67;;;23.73;;
18748;SDS011;9503;53.560;10.246;2022-08-19T06:22:06;48.78;;;24.10;;
18748;SDS011;9503;53.560;10.246;2022-08-19T06:24:33;38.80;;;21.17;;
18748;SDS011;9503;53.560;10.246;2022-08-19T06:27:00;42.33;;;23.02;;
18748;SDS011;9503;53.560;10.246;2022-08-19T06:29:27;39.85;;;22.60;;
18748;SDS011;9503;53.560;10.246;2022-08-19T06:31:57;47.63;;;22.15;;
18748;SDS011;9503;53.560;10.246;2022-08-19T06:34:25;40.03;;;21.40;;
18748;SDS011;9503;53.560;10.246;2022-08-19T06:36:53;42.70;;;22.45;;
18748;SDS011;9503;53.560;10.246;2022-08-19T06:39:22;38.00;;;21.02;;
18748;SDS011;9503;53.560;10.246;2022-08-19T06:41:58;40.65;;;21.60;;
18748;SDS011;9503;53.560;10.246;2022-08-19T06:44:27;44.15;;;21.30;;
18748;SDS011;9503;53.560;10.246;2022-08-19T06:46:56;42.15;;;21.67;;
18748;SDS011;9503;53.560;10.246;2022-08-19T06:49:23;38.30;;;21.33;;
18748;SDS011;9503;53.560;10.246;2022-08-19T06:51:52;38.13;;;20.83;;
18748;SDS011;9503;53.560;10.246;2022-08-19T06:54:21;39.70;;;21.50;;
18748;SDS011;9503;53.560;10.246;2022-08-19T06:56:48;34.40;;;20.92;;
18748;SDS011;9503;53.560;10.246;2022-08-19T06:59:16;41.92;;;22.85;;
18748;SDS011;9503;53.560;10.246;2022-08-19T07:01:46;41.10;;;21.95;;
18748;SDS011;9503;53.560;10.246;2022-08-19T07:04:17;41.28;;;23.00;;
18748;SDS011;9503;53.560;10.246;2022-08-19T07:06:45;39.83;;;21.67;;
18748;SDS011;9503;53.560;10.246;2022-08-19T07:09:12;38.20;;;23.48;;
18748;SDS011;9503;53.560;10.246;2022-08-19T07:11:44;43.08;;;21.80;;
18748;SDS011;9503;53.560;10.246;2022-08-19T07:14:12;37.58;;;21.58;;
18748;SDS011;9503;53.560;10.246;2022-08-19T07:16:42;38.63;;;20.90;;
18748;SDS011;9503;53.560;10.246;2022-08-19T07:19:10;34.42;;;20.80;;
18748;SDS011;9503;53.560;10.246;2022-08-19T07:21:38;32.03;;;19.20;;
18748;SDS011;9503;53.560;10.246;2022-08-19T07:24:05;34.63;;;19.77;;
18748;SDS011;9503;53.560;10.246;2022-08-19T07:26:37;40.88;;;21.52;;
18748;SDS011;9503;53.560;10.246;2022-08-19T07:29:05;39.42;;;22.23;;
18748;SDS011;9503;53.560;10.246;2022-08-19T07:31:32;40.15;;;21.00;;
18748;SDS011;9503;53.560;10.246;2022-08-19T07:34:03;38.05;;;21.27;;
18748;SDS011;9503;53.560;10.246;2022-08-19T07:36:32;43.00;;;20.48;;
18748;SDS011;9503;53.560;10.246;2022-08-19T07:39:03;43.65;;;21.25;;
18748;SDS011;9503;53.560;10.246;2022-08-19T07:41:31;45.33;;;22.65;;
18748;SDS011;9503;53.560;10.246;2022-08-19T07:43:58;41.42;;;22.50;;
18748;SDS011;9503;53.560;10.246;2022-08-19T07:46:28;41.72;;;22.08;;
18748;SDS011;9503;53.560;10.246;2022-08-19T07:48:56;40.25;;;22.27;;
18748;SDS011;9503;53.560;10.246;2022-08-19T07:51:23;34.33;;;21.58;;
18748;SDS011;9503;53.560;10.246;2022-08-19T07:53:50;36.35;;;20.85;;
18748;SDS011;9503;53.560;10.246;2022-08-19T07:56:19;39.58;;;22.08;;
18748;SDS011;9503;53.560;10.246;2022-08-19T07:58:48;35.75;;;20.13;;
18748;SDS011;9503;53.560;10.246;2022-08-19T08:01:17;40.70;;;22.00;;
18748;SDS011;9503;53.560;10.246;2022-08-19T08:03:45;37.38;;;20.77;;
18748;SDS011;9503;53.560;10.246;2022-08-19T08:06:42;36.97;;;21.27;;
18748;SDS011;9503;53.560;10.246;2022-08-19T08:09:30;42.10;;;21.30;;
18748;SDS011;9503;53.560;10.246;2022-08-19T08:12:01;40.60;;;21.92;;
18748;SDS011;9503;53.560;10.246;2022-08-19T08:14:32;36.53;;;20.98;;
18748;SDS011;9503;53.560;10.246;2022-08-19T08:17:02;34.53;;;20.42;;
18748;SDS011;9503;53.560;10.246;2022-08-19T08:19:30;46.38;;;23.65;;
18748;SDS011;9503;53.560;10.246;2022-08-19T08:21:57;45.00;;;22.73;;
18748;SDS011;9503;53.560;10.246;2022-08-19T08:24:29;38.22;;;21.02;;
18748;SDS011;9503;53.560;10.246;2022-08-19T08:26:57;36.25;;;21.73;;
18748;SDS011;9503;53.560;10.246;2022-08-19T08:29:27;40.95;;;22.55;;
18748;SDS011;9503;53.560;10.246;2022-08-19T08:31:55;46.20;;;24.77;;
18748;SDS011;9503;53.560;10.246;2022-08-19T08:34:22;42.25;;;22.77;;
18748;SDS011;9503;53.560;10.246;2022-08-19T08:36:49;43.80;;;22.58;;
18748;SDS011;9503;53.560;10.246;2022-08-19T08:39:17;41.58;;;22.15;;
18748;SDS011;9503;53.560;10.246;2022-08-19T08:41:47;46.10;;;23.02;;
18748;SDS011;9503;53.560;10.246;2022-08-19T08:44:20;50.35;;;23.95;;
18748;SDS011;9503;53.560;10.246;2022-08-19T08:46:51;43.13;;;22.48;;
18748;SDS011;9503;53.560;10.246;2022-08-19T08:49:26;42.47;;;22.63;;
18748;SDS011;9503;53.560;10.246;2022-08-19T08:52:02;41.17;;;22.40;;
18748;SDS011;9503;53.560;10.246;2022-08-19T08:54:32;42.83;;;22.65;;
18748;SDS011;9503;53.560;10.246;2022-08-19T08:57:03;39.67;;;23.40;;
18748;SDS011;9503;53.560;10.246;2022-08-19T08:59:34;38.78;;;22.05;;
18748;SDS011;9503;53.560;10.246;2022-08-19T09:02:08;36.90;;;20.83;;
18748;SDS011;9503;53.560;10.246;2022-08-19T09:04:35;42.97;;;22.38;;
18748;SDS011;9503;53.560;10.246;2022-08-19T09:07:09;40.05;;;21.48;;
18748;SDS011;9503;53.560;10.246;2022-08-19T09:10:02;42.83;;;22.90;;
18748;SDS011;9503;53.560;10.246;2022-08-19T09:12:34;45.97;;;24.10;;
18748;SDS011;9503;53.560;10.246;2022-08-19T09:15:09;41.28;;;21.98;;
18748;SDS011;9503;53.560;10.246;2022-08-19T09:17:39;38.97;;;22.45;;
18748;SDS011;9503;53.560;10.246;2022-08-19T09:20:08;39.58;;;21.40;;
18748;SDS011;9503;53.560;10.246;2022-08-19T09:22:42;38.92;;;23.02;;
18748;SDS011;9503;53.560;10.246;2022-08-19T09:25:10;38.95;;;21.30;;
18748;SDS011;9503;53.560;10.246;2022-08-19T09:27:39;43.25;;;22.73;;
18748;SDS011;9503;53.560;10.246;2022-08-19T09:30:08;39.55;;;21.67;;
18748;SDS011;9503;53.560;10.246;2022-08-19T09:32:37;39.13;;;22.58;;
18748;SDS011;9503;53.560;10.246;2022-08-19T09:35:07;42.03;;;22.17;;
18748;SDS011;9503;53.560;10.246;2022-08-19T09:37:34;41.67;;;22.58;;
18748;SDS011;9503;53.560;10.246;2022-08-19T09:40:01;42.28;;;23.10;;
18748;SDS011;9503;53.560;10.246;2022-08-19T09:42:29;41.00;;;20.38;;
18748;SDS011;9503;53.560;10.246;2022-08-19T09:44:55;42.67;;;22.10;;
18748;SDS011;9503;53.560;10.246;2022-08-19T09:47:22;42.90;;;21.58;;
18748;SDS011;9503;53.560;10.246;2022-08-19T09:49:50;40.28;;;21.23;;
18748;SDS011;9503;53.560;10.246;2022-08-19T09:52:17;38.22;;;21.55;;
18748;SDS011;9503;53.560;10.246;2022-08-19T09:54:44;39.10;;;20.38;;
18748;SDS011;9503;53.560;10.246;2022-08-19T09:57:10;41.55;;;21.92;;
18748;SDS011;9503;53.560;10.246;2022-08-19T09:59:38;38.45;;;20.73;;
18748;SDS011;9503;53.560;10.246;2022-08-19T10:02:05;40.97;;;21.92;;
18748;SDS011;9503;53.560;10.246;2022-08-19T10:04:32;40.67;;;20.85;;
18748;SDS011;9503;53.560;10.246;2022-08-19T10:07:14;37.17;;;21.77;;
18748;SDS011;9503;53.560;10.246;2022-08-19T10:09:41;36.50;;;21.38;;
18748;SDS011;9503;53.560;10.246;2022-08-19T10:12:08;38.45;;;21.25;;
18748;SDS011;9503;53.560;10.246;2022-08-19T10:14:34;40.03;;;21.17;;
18748;SDS011;9503;53.560;10.246;2022-08-19T10:17:02;37.40;;;21.05;;
18748;SDS011;9503;53.560;10.246;2022-08-19T10:19:29;42.42;;;22.20;;
18748;SDS011;9503;53.560;10.246;2022-08-19T10:22:02;40.15;;;22.50;;
18748;SDS011;9503;53.560;10.246;2022-08-19T10:24:30;40.40;;;21.98;;
18748;SDS011;9503;53.560;10.246;2022-08-19T10:26:58;39.10;;;21.55;;
18748;SDS011;9503;53.560;10.246;2022-08-19T10:29:26;39.45;;;22.55;;
18748;SDS011;9503;53.560;10.246;2022-08-19T10:31:53;39.67;;;22.17;;
18748;SDS011;9503;53.560;10.246;2022-08-19T10:34:21;42.28;;;21.90;;
18748;SDS011;9503;53.560;10.246;2022-08-19T10:36:47;36.92;;;20.83;;
18748;SDS011;9503;53.560;10.246;2022-08-19T10:39:14;35.08;;;20.58;;
18748;SDS011;9503;53.560;10.246;2022-08-19T10:41:42;38.17;;;21.75;;
18748;SDS011;9503;53.560;10.246;2022-08-19T10:44:10;34.80;;;20.15;;
18748;SDS011;9503;53.560;10.246;2022-08-19T10:46:39;39.50;;;22.10;;
18748;SDS011;9503;53.560;10.246;2022-08-19T10:49:08;40.33;;;22.02;;
18748;SDS011;9503;53.560;10.246;2022-08-19T10:51:37;39.30;;;21.98;;
18748;SDS011;9503;53.560;10.246;2022-08-19T10:54:21;37.20;;;20.67;;
18748;SDS011;9503;53.560;10.246;2022-08-19T10:56:55;41.03;;;21.48;;
18748;SDS011;9503;53.560;10.246;2022-08-19T10:59:21;33.00;;;19.23;;
18748;SDS011;9503;53.560;10.246;2022-08-19T11:01:50;33.00;;;19.40;;
18748;SDS011;9503;53.560;10.246;2022-08-19T11:04:17;32.13;;;19.98;;
18748;SDS011;9503;53.560;10.246;2022-08-19T11:06:45;33.00;;;19.70;;
18748;SDS011;9503;53.560;10.246;2022-08-19T11:09:14;34.50;;;19.58;;
18748;SDS011;9503;53.560;10.246;2022-08-19T11:11:42;36.40;;;19.60;;
18748;SDS011;9503;53.560;10.246;2022-08-19T11:14:13;33.58;;;19.42;;
18748;SDS011;9503;53.560;10.246;2022-08-19T11:16:43;27.88;;;18.25;;
18748;SDS011;9503;53.560;10.246;2022-08-19T11:19:10;30.95;;;18.88;;
18748;SDS011;9503;53.560;10.246;2022-08-19T11:21:40;34.30;;;20.17;;
18748;SDS011;9503;53.560;10.246;2022-08-19T11:24:09;35.70;;;20.20;;
18748;SDS011;9503;53.560;10.246;2022-08-19T11:26:38;33.88;;;18.27;;
18748;SDS011;9503;53.560;10.246;2022-08-19T11:29:06;33.88;;;19.67;;
18748;SDS011;9503;53.560;10.246;2022-08-19T11:31:38;34.53;;;17.83;;
18748;SDS011;9503;53.560;10.246;2022-08-19T11:34:08;34.83;;;20.02;;
18748;SDS011;9503;53.560;10.246;2022-08-19T11:36:37;35.55;;;19.70;;
18748;SDS011;9503;53.560;10.246;2022-08-19T11:39:05;33.25;;;20.05;;
18748;SDS011;9503;53.560;10.246;2022-08-19T11:41:36;35.25;;;19.63;;
18748;SDS011;9503;53.560;10.246;2022-08-19T11:44:03;27.90;;;17.77;;
18748;SDS011;9503;53.560;10.246;2022-08-19T11:46:31;35.50;;;20.27;;
18748;SDS011;9503;53.560;10.246;2022-08-19T11:49:00;30.98;;;17.65;;
18748;SDS011;9503;53.560;10.246;2022-08-19T11:51:28;32.55;;;18.95;;
18748;SDS011;9503;53.560;10.246;2022-08-19T11:53:55;35.15;;;19.75;;
18748;SDS011;9503;53.560;10.246;2022-08-19T11:56:23;37.78;;;18.92;;
18748;SDS011;9503;53.560;10.246;2022-08-19T11:58:50;33.20;;;17.92;;
18748;SDS011;9503;53.560;10.246;2022-08-19T12:01:18;32.85;;;19.08;;
18748;SDS011;9503;53.560;10.246;2022-08-19T12:03:47;37.10;;;19.40;;
18748;SDS011;9503;53.560;10.246;2022-08-19T12:06:18;30.45;;;17.23;;
18748;SDS011;9503;53.560;10.246;2022-08-19T12:08:49;30.42;;;19.33;;
18748;SDS011;9503;53.560;10.246;2022-08-19T12:11:16;29.73;;;18.50;;
18748;SDS011;9503;53.560;10.246;2022-08-19T12:13:42;31.48;;;18.45;;
18748;SDS011;9503;53.560;10.246;2022-08-19T12:16:12;27.00;;;16.88;;
18748;SDS011;9503;53.560;10.246;2022-08-19T12:18:40;32.35;;;16.30;;
18748;SDS011;9503;53.560;10.246;2022-08-19T12:21:08;23.75;;;15.98;;
18748;SDS011;9503;53.560;10.246;2022-08-19T12:23:37;30.02;;;17.20;;
18748;SDS011;9503;53.560;10.246;2022-08-19T12:26:04;27.60;;;15.02;;
18748;SDS011;9503;53.560;10.246;2022-08-19T12:28:31;25.35;;;16.30;;
18748;SDS011;9503;53.560;10.246;2022-08-19T12:30:58;31.50;;;18.48;;
18748;SDS011;9503;53.560;10.246;2022-08-19T12:33:25;25.83;;;16.75;;
18748;SDS011;9503;53.560;10.246;2022-08-19T12:35:53;25.20;;;16.85;;
18748;SDS011;9503;53.560;10.246;2022-08-19T12:38:21;24.08;;;17.00;;
18748;SDS011;9503;53.560;10.246;2022-08-19T12:40:50;24.83;;;16.83;;
18748;SDS011;9503;53.560;10.246;2022-08-19T12:43:18;24.35;;;16.52;;
18748;SDS011;9503;53.560;10.246;2022-08-19T12:45:45;30.40;;;18.88;;
18748;SDS011;9503;53.560;10.246;2022-08-19T12:48:13;29.70;;;19.13;;
18748;SDS011;9503;53.560;10.246;2022-08-19T12:50:40;29.25;;;18.83;;
18748;SDS011;9503;53.560;10.246;2022-08-19T12:53:07;22.38;;;16.10;;
18748;SDS011;9503;53.560;10.246;2022-08-19T12:55:34;28.00;;;17.88;;
18748;SDS011;9503;53.560;10.246;2022-08-19T12:58:02;25.40;;;17.00;;
18748;SDS011;9503;53.560;10.246;2022-08-19T13:00:29;22.75;;;15.68;;
18748;SDS011;9503;53.560;10.246;2022-08-19T13:02:58;22.92;;;15.60;;
18748;SDS011;9503;53.560;10.246;2022-08-19T13:05:26;26.88;;;17.15;;
18748;SDS011;9503;53.560;10.246;2022-08-19T13:07:56;22.50;;;14.73;;
18748;SDS011;9503;53.560;10.246;2022-08-19T13:10:25;20.67;;;13.55;;
18748;SDS011;9503;53.560;10.246;2022-08-19T13:12:56;19.67;;;13.45;;
18748;SDS011;9503;53.560;10.246;2022-08-19T13:15:26;18.80;;;13.60;;
18748;SDS011;9503;53.560;10.246;2022-08-19T13:17:53;20.33;;;13.95;;
18748;SDS011;9503;53.560;10.246;2022-08-19T13:20:21;25.23;;;13.63;;
18748;SDS011;9503;53.560;10.246;2022-08-19T13:22:48;17.17;;;12.70;;
18748;SDS011;9503;53.560;10.246;2022-08-19T13:25:17;18.85;;;13.35;;
18748;SDS011;9503;53.560;10.246;2022-08-19T13:27:45;18.63;;;14.23;;
18748;SDS011;9503;53.560;10.246;2022-08-19T13:30:13;20.17;;;14.60;;
18748;SDS011;9503;53.560;10.246;2022-08-19T13:33:00;17.67;;;13.38;;
18748;SDS011;9503;53.560;10.246;2022-08-19T13:35:41;17.55;;;12.70;;
18748;SDS011;9503;53.560;10.246;2022-08-19T13:38:10;14.98;;;12.05;;
18748;SDS011;9503;53.560;10.246;2022-08-19T13:40:38;15.80;;;10.23;;
18748;SDS011;9503;53.560;10.246;2022-08-19T13:43:05;19.20;;;12.30;;
18748;SDS011;9503;53.560;10.246;2022-08-19T13:45:33;17.60;;;13.73;;
18748;SDS011;9503;53.560;10.246;2022-08-19T13:48:02;18.52;;;13.23;;
18748;SDS011;9503;53.560;10.246;2022-08-19T13:50:34;18.02;;;13.30;;
18748;SDS011;9503;53.560;10.246;2022-08-19T13:53:03;19.00;;;14.73;;
18748;SDS011;9503;53.560;10.246;2022-08-19T13:55:30;17.90;;;12.43;;
18748;SDS011;9503;53.560;10.246;2022-08-19T13:57:58;19.45;;;12.18;;
18748;SDS011;9503;53.560;10.246;2022-08-19T14:00:31;16.58;;;12.88;;
18748;SDS011;9503;53.560;10.246;2022-08-19T14:02:59;16.80;;;13.50;;
18748;SDS011;9503;53.560;10.246;2022-08-19T14:05:29;16.88;;;11.50;;
18748;SDS011;9503;53.560;10.246;2022-08-19T14:07:56;17.90;;;12.55;;
18748;SDS011;9503;53.560;10.246;2022-08-19T14:10:24;17.38;;;13.02;;
18748;SDS011;9503;53.560;10.246;2022-08-19T14:12:52;13.38;;;10.65;;
18748;SDS011;9503;53.560;10.246;2022-08-19T14:15:20;17.77;;;12.63;;
18748;SDS011;9503;53.560;10.246;2022-08-19T14:17:49;16.25;;;12.43;;
18748;SDS011;9503;53.560;10.246;2022-08-19T14:20:17;16.98;;;12.80;;
18748;SDS011;9503;53.560;10.246;2022-08-19T14:22:45;21.50;;;12.68;;
18748;SDS011;9503;53.560;10.246;2022-08-19T14:25:13;13.65;;;11.70;;
18748;SDS011;9503;53.560;10.246;2022-08-19T14:27:42;17.55;;;12.15;;
18748;SDS011;9503;53.560;10.246;2022-08-19T14:30:10;16.38;;;11.82;;